Time;durP1;ratioP1;P1;durP2;ratioP2;P2;SDS_P1;SDS_P2;PMS_P1;PMS_P2;Temp;Humidity;BMP_temperature;BMP_pressure;BME280_temperature;BME280_humidity;BME280_pressure;Samples;Min_cycle;Max_cycle;Signal;HPM_P1;HPM_P2
2022/04/08 00:01:36;;;;;;;4.15;1.80;;;7.30;1.00;;;;;;5014025;28;20363;-84
2022/04/08 00:04:03;;;;;;;4.70;2.50;;;7.70;1.00;;;;;;5014837;28;20232;-84
2022/04/08 00:06:30;;;;;;;3.55;2.00;;;7.70;1.00;;;;;;5013723;28;20209;-84
2022/04/08 00:08:57;;;;;;;4.53;1.55;;;7.30;1.00;;;;;;5010132;28;20217;-84
2022/04/08 00:11:24;;;;;;;4.53;1.90;;;7.10;1.00;;;;;;5021908;23;20232;-82
2022/04/08 00:13:52;;;;;;;6.07;2.33;;;7.60;9.70;;;;;;5004381;28;20229;-82
2022/04/08 00:16:20;;;;;;;5.60;2.03;;;7.50;1.00;;;;;;5002931;28;20205;-82
2022/04/08 00:18:48;;;;;;;4.60;2.00;;;7.60;7.80;;;;;;5000079;28;20224;-82
2022/04/08 00:21:15;;;;;;;2.90;2.25;;;7.50;14.20;;;;;;4999482;28;20224;-81
2022/04/08 00:23:42;;;;;;;1.88;1.77;;;7.60;1.00;;;;;;4999017;28;20217;-81
2022/04/08 00:26:09;;;;;;;1.95;1.85;;;7.50;1.00;;;;;;4999012;28;20209;-82
2022/04/08 00:28:36;;;;;;;1.95;1.83;;;7.80;1.00;;;;;;4998538;28;20256;-81
2022/04/08 00:31:04;;;;;;;2.22;2.03;;;7.50;1.00;;;;;;4998048;28;20312;-81
2022/04/08 00:33:32;;;;;;;2.50;2.10;;;7.40;27.00;;;;;;5000708;28;20232;-81
2022/04/08 00:35:59;;;;;;;2.20;2.10;;;7.40;33.60;;;;;;5006940;28;20556;-80
2022/04/08 00:38:26;;;;;;;2.25;2.05;;;7.40;30.00;;;;;;4999015;28;20648;-81
2022/04/08 00:40:52;;;;;;;2.95;1.90;;;7.20;52.60;;;;;;5004205;28;20240;-81
2022/04/08 00:43:20;;;;;;;2.50;2.30;;;7.60;1.00;;;;;;5003519;28;20200;-81
2022/04/08 00:45:47;;;;;;;2.13;2.03;;;7.50;1.00;;;;;;5000242;28;20205;-82
2022/04/08 00:48:14;;;;;;;2.85;2.13;;;7.60;1.00;;;;;;4998713;28;20255;-81
2022/04/08 00:50:45;;;;;;;2.75;1.85;;;7.90;1.00;;;;;;4999854;28;20229;-81
2022/04/08 00:53:12;;;;;;;2.95;2.08;;;7.70;1.00;;;;;;4998731;28;20194;-81
2022/04/08 00:55:39;;;;;;;2.00;1.80;;;7.80;1.00;;;;;;4999088;28;20210;-82
2022/04/08 00:58:06;;;;;;;2.10;2.00;;;7.80;1.00;;;;;;5002866;28;20205;-81
2022/04/08 01:00:34;;;;;;;1.80;1.70;;;7.80;1.00;;;;;;5003507;28;20237;-81
2022/04/08 01:03:00;;;;;;;5.00;1.80;;;7.80;1.00;;;;;;5007163;28;20237;-81
2022/04/08 01:05:27;;;;;;;7.68;2.47;;;7.80;1.00;;;;;;5001542;28;20206;-81
2022/04/08 01:07:56;;;;;;;2.75;1.88;;;7.80;1.00;;;;;;5004761;28;20222;-80
2022/04/08 01:10:23;;;;;;;6.10;1.80;;;7.80;1.00;;;;;;5010932;28;20205;-80
2022/04/08 01:12:50;;;;;;;1.83;1.73;;;7.70;1.00;;;;;;5010167;28;20447;-80
2022/04/08 01:15:17;;;;;;;2.58;1.70;;;7.70;1.00;;;;;;5010557;28;20653;-80
2022/04/08 01:17:44;;;;;;;1.30;1.20;;;7.90;1.00;;;;;;5010747;28;20201;-80
2022/04/08 01:20:12;;;;;;;2.40;1.60;;;7.70;1.00;;;;;;5008944;28;20201;-81
2022/04/08 01:22:39;;;;;;;2.75;1.23;;;7.70;1.00;;;;;;5009142;28;20217;-82
2022/04/08 01:25:09;;;;;;;4.47;1.60;;;7.50;1.00;;;;;;5009254;28;20208;-81
2022/04/08 01:27:36;;;;;;;1.30;1.20;;;7.50;1.00;;;;;;5006908;28;20186;-81
2022/04/08 01:30:05;;;;;;;1.30;1.20;;;7.40;1.00;;;;;;5002570;28;20247;-82
2022/04/08 01:32:32;;;;;;;1.70;1.20;;;7.60;1.00;;;;;;4999666;28;20225;-82
2022/04/08 01:34:58;;;;;;;2.08;1.40;;;7.40;1.00;;;;;;4998600;28;20271;-82
2022/04/08 01:37:25;;;;;;;1.50;1.02;;;7.40;1.00;;;;;;4999152;28;20205;-82
2022/04/08 01:39:52;;;;;;;1.25;1.15;;;7.00;1.00;;;;;;4998515;28;20271;-82
2022/04/08 01:42:23;;;;;;;2.45;1.23;;;7.40;1.00;;;;;;5008582;28;20277;-82
2022/04/08 01:44:50;;;;;;;1.50;1.40;;;7.40;1.00;;;;;;5018393;28;20177;-80
2022/04/08 01:47:16;;;;;;;2.33;1.70;;;7.40;1.00;;;;;;5020803;28;20285;-80
2022/04/08 01:49:43;;;;;;;2.25;1.60;;;7.40;1.00;;;;;;5019651;28;20221;-80
2022/04/08 01:52:11;;;;;;;1.85;1.10;;;7.40;1.00;;;;;;5011922;28;20225;-82
2022/04/08 01:54:37;;;;;;;1.75;1.35;;;7.50;1.00;;;;;;5012014;28;20259;-82
2022/04/08 01:57:04;;;;;;;2.33;1.17;;;7.40;1.00;;;;;;5009659;28;20202;-82
2022/04/08 01:59:32;;;;;;;3.53;1.67;;;7.40;1.00;;;;;;5009162;28;20205;-81
2022/04/08 02:01:59;;;;;;;1.23;1.15;;;7.20;1.00;;;;;;5020348;28;20205;-80
2022/04/08 02:04:26;;;;;;;1.27;1.17;;;7.30;1.00;;;;;;5020917;28;20197;-80
2022/04/08 02:06:53;;;;;;;3.35;1.50;;;7.40;1.00;;;;;;5016536;28;20601;-81
2022/04/08 02:09:19;;;;;;;2.85;1.45;;;7.30;1.00;;;;;;5007747;28;20217;-82
2022/04/08 02:11:46;;;;;;;1.30;1.20;;;7.40;1.00;;;;;;5001526;28;20229;-83
2022/04/08 02:14:13;;;;;;;2.10;1.80;;;7.30;1.00;;;;;;5001210;28;20213;-83
2022/04/08 02:16:40;;;;;;;2.20;1.30;;;7.40;1.00;;;;;;5001700;28;20209;-82
2022/04/08 02:19:07;;;;;;;2.80;1.50;;;7.40;1.00;;;;;;5001811;28;20681;-81
2022/04/08 02:21:34;;;;;;;1.40;1.30;;;7.30;1.00;;;;;;5001113;28;20439;-82
2022/04/08 02:24:03;;;;;;;1.83;1.15;;;7.30;1.00;;;;;;5000909;28;20211;-82
2022/04/08 02:26:29;;;;;;;2.95;1.73;;;7.30;1.00;;;;;;5001971;28;20228;-81
2022/04/08 02:28:56;;;;;;;5.25;1.50;;;7.30;1.00;;;;;;5004655;28;20644;-81
2022/04/08 02:31:23;;;;;;;6.38;1.65;;;7.30;1.00;;;;;;5004571;28;20600;-82
2022/04/08 02:33:51;;;;;;;2.10;1.70;;;7.40;99.90;;;;;;5000720;28;20237;-81
2022/04/08 02:36:17;;;;;;;2.38;1.85;;;7.40;99.90;;;;;;5000491;28;20245;-82
2022/04/08 02:38:44;;;;;;;2.53;1.65;;;7.40;99.90;;;;;;5000198;28;20248;-82
2022/04/08 02:41:10;;;;;;;6.85;1.77;;;7.50;99.90;;;;;;5002492;28;20660;-81
2022/04/08 02:43:37;;;;;;;1.45;1.30;;;7.50;62.80;;;;;;5003383;28;20283;-82
2022/04/08 02:46:03;;;;;;;1.70;1.60;;;7.40;99.90;;;;;;5001044;28;20210;-83
2022/04/08 02:48:30;;;;;;;1.40;1.30;;;7.50;19.20;;;;;;5000915;28;20638;-82
2022/04/08 02:50:58;;;;;;;1.55;1.10;;;7.40;99.90;;;;;;5000889;28;20647;-82
2022/04/08 02:53:24;;;;;;;1.10;1.00;;;7.40;8.80;;;;;;5000934;28;20276;-82
2022/04/08 02:55:51;;;;;;;1.17;1.00;;;7.50;1.00;;;;;;5000789;28;20236;-79
2022/04/08 02:58:17;;;;;;;2.90;1.42;;;7.50;99.90;;;;;;5015034;28;20197;-80
2022/04/08 03:00:44;;;;;;;2.38;1.60;;;7.50;99.90;;;;;;5007521;28;20316;-81
2022/04/08 03:03:11;;;;;;;1.58;1.45;;;7.50;99.90;;;;;;5001571;28;20703;-81
2022/04/08 03:05:37;;;;;;;1.65;1.42;;;7.40;99.90;;;;;;5000464;28;20237;-81
2022/04/08 03:08:06;;;;;;;1.55;1.45;;;7.40;99.90;;;;;;5001503;28;20214;-82
2022/04/08 03:10:33;;;;;;;2.20;1.90;;;7.50;99.90;;;;;;5011034;28;20205;-80
2022/04/08 03:12:59;;;;;;;1.60;1.50;;;7.50;99.90;;;;;;5008422;28;20233;-82
2022/04/08 03:15:26;;;;;;;6.22;1.50;;;7.50;99.90;;;;;;5002169;28;20205;-82
2022/04/08 03:17:52;;;;;;;5.68;3.17;;;7.50;99.90;;;;;;5001159;28;20291;-82
2022/04/08 03:20:19;;;;;;;1.58;1.10;;;7.50;1.00;;;;;;5002939;28;20207;-83
2022/04/08 03:22:46;;;;;;;2.08;1.10;;;7.50;99.90;;;;;;5002457;28;20232;-82
2022/04/08 03:25:14;;;;;;;1.30;1.20;;;7.50;1.00;;;;;;5000626;28;20201;-82
2022/04/08 03:27:40;;;;;;;1.92;1.25;;;7.50;1.00;;;;;;5001032;28;20264;-82
2022/04/08 03:30:08;;;;;;;1.25;1.13;;;7.40;1.00;;;;;;5001266;28;20277;-82
2022/04/08 03:32:35;;;;;;;1.55;1.23;;;7.50;1.00;;;;;;5000084;28;20229;-82
2022/04/08 03:35:01;;;;;;;2.30;1.33;;;7.50;99.90;;;;;;5001219;28;20209;-82
2022/04/08 03:37:30;;;;;;;1.42;1.33;;;7.50;99.90;;;;;;5010108;28;20217;-82
2022/04/08 03:39:56;;;;;;;1.60;1.50;;;7.50;1.00;;;;;;5009111;28;20201;-81
2022/04/08 03:42:25;;;;;;;2.10;1.50;;;7.50;1.00;;;;;;5006104;28;20604;-82
2022/04/08 03:44:52;;;;;;;1.90;1.80;;;7.40;1.00;;;;;;5000323;28;20252;-81
2022/04/08 03:47:19;;;;;;;1.65;1.33;;;7.40;1.00;;;;;;5000049;28;20711;-82
2022/04/08 03:49:45;;;;;;;1.10;1.00;;;7.40;1.00;;;;;;4999443;28;20222;-82
2022/04/08 03:52:12;;;;;;;1.40;1.30;;;7.40;1.00;;;;;;5001450;28;20234;-81
2022/04/08 03:54:39;;;;;;;1.35;1.02;;;7.30;1.00;;;;;;5011287;28;20208;-80
2022/04/08 03:57:06;;;;;;;2.35;1.60;;;7.20;9.40;;;;;;5017587;28;20205;-81
2022/04/08 03:59:34;;;;;;;1.50;1.40;;;7.30;10.80;;;;;;5016601;28;20220;-80
2022/04/08 04:02:01;;;;;;;2.45;1.30;;;7.20;29.20;;;;;;5010018;28;20229;-81
2022/04/08 04:04:28;;;;;;;1.40;1.20;;;7.30;1.00;;;;;;4999829;28;20216;-81
2022/04/08 04:06:55;;;;;;;4.03;1.50;;;7.30;1.00;;;;;;5001411;28;20220;-82
2022/04/08 04:09:21;;;;;;;1.42;1.33;;;7.30;1.00;;;;;;4999880;28;20262;-81
2022/04/08 04:11:48;;;;;;;1.20;1.10;;;7.30;1.00;;;;;;5000845;28;20264;-82
2022/04/08 04:14:14;;;;;;;1.60;1.20;;;7.30;1.00;;;;;;4999508;28;20206;-82
2022/04/08 04:16:42;;;;;;;1.60;1.50;;;7.20;1.00;;;;;;5000331;28;20237;-82
2022/04/08 04:19:09;;;;;;;1.10;1.00;;;7.10;99.90;;;;;;5005554;28;20209;-82
2022/04/08 04:21:35;;;;;;;0.98;0.98;;;7.00;54.40;;;;;;5007668;28;20239;-83
2022/04/08 04:24:02;;;;;;;1.25;1.15;;;6.70;99.90;;;;;;5007999;28;20202;-82
2022/04/08 04:26:38;;;;;;;4.10;1.25;;;6.40;99.90;;;;;;5128021;27;20537;-81
2022/04/08 04:29:05;;;;;;;11.05;7.00;;;6.40;99.90;;;;;;5130762;28;20201;-80
2022/04/08 04:31:31;;;;;;;2.47;2.28;;;6.40;99.90;;;;;;5131599;28;20237;-80
2022/04/08 04:33:58;;;;;;;11.45;7.57;;;6.40;99.90;;;;;;5132105;28;20206;-81
2022/04/08 04:36:25;;;;;;;10.25;6.70;;;6.50;99.90;;;;;;5131379;28;20194;-80
2022/04/08 04:38:51;;;;;;;6.72;3.70;;;6.50;99.90;;;;;;5132410;28;20198;-80
2022/04/08 04:41:18;;;;;;;5.77;3.63;;;6.50;99.90;;;;;;5126292;28;20436;-79
2022/04/08 04:43:46;;;;;;;2.50;1.83;;;6.60;99.90;;;;;;5128469;28;20444;-79
2022/04/08 04:46:13;;;;;;;1.90;1.80;;;6.60;92.10;;;;;;5126260;28;20248;-82
2022/04/08 04:48:39;;;;;;;2.10;1.45;;;6.60;93.70;;;;;;5120259;28;20205;-82
2022/04/08 04:51:06;;;;;;;1.45;1.15;;;6.40;1.00;;;;;;5119163;28;20243;-83
2022/04/08 04:53:32;;;;;;;1.58;1.48;;;6.40;1.00;;;;;;5118590;28;20536;-83
2022/04/08 04:55:59;;;;;;;1.60;1.30;;;6.40;1.00;;;;;;5117284;28;20193;-83
2022/04/08 04:58:26;;;;;;;4.60;1.45;;;6.40;1.00;;;;;;5116436;28;20571;-82
2022/04/08 05:00:53;;;;;;;2.85;1.45;;;5.60;1.00;;;;;;5116702;28;20244;-82
2022/04/08 05:03:20;;;;;;;3.15;1.65;;;6.30;1.00;;;;;;5116736;28;20236;-82
2022/04/08 05:05:47;;;;;;;1.60;1.40;;;6.20;1.00;;;;;;5116619;28;20221;-83
2022/04/08 05:08:13;;;;;;;1.40;1.30;;;6.20;1.00;;;;;;5119621;28;20261;-82
2022/04/08 05:10:40;;;;;;;2.65;1.30;;;6.30;1.00;;;;;;5125206;28;20209;-81
2022/04/08 05:13:07;;;;;;;2.05;1.45;;;6.20;1.00;;;;;;5119597;28;20594;-82
2022/04/08 05:15:38;;;;;;;2.05;1.70;;;6.20;1.00;;;;;;5116452;28;20204;-82
2022/04/08 05:18:06;;;;;;;2.03;1.30;;;6.30;1.00;;;;;;5116962;28;20246;-82
2022/04/08 05:20:33;;;;;;;1.73;1.63;;;6.30;1.00;;;;;;5115359;28;20198;-82
2022/04/08 05:23:00;;;;;;;5.85;1.83;;;6.30;1.00;;;;;;5118378;28;20243;-83
2022/04/08 05:25:26;;;;;;;2.03;1.40;;;6.40;1.00;;;;;;5116986;28;20257;-82
2022/04/08 05:27:54;;;;;;;3.92;1.83;;;6.40;1.00;;;;;;5122166;28;20251;-82
2022/04/08 05:30:21;;;;;;;2.85;1.90;;;6.30;16.90;;;;;;5114596;28;20212;-82
2022/04/08 05:32:48;;;;;;;2.35;1.67;;;6.30;37.80;;;;;;5114482;28;20274;-82
2022/04/08 05:35:16;;;;;;;2.10;1.73;;;6.20;99.90;;;;;;5114715;28;20201;-82
2022/04/08 05:37:44;;;;;;;2.00;1.50;;;6.20;99.90;;;;;;5102158;28;20206;-82
2022/04/08 05:40:14;;;;;;;1.83;1.73;;;6.20;99.90;;;;;;5100321;28;20236;-82
2022/04/08 05:42:42;;;;;;;3.83;1.45;;;6.20;99.90;;;;;;5101078;28;20228;-81
2022/04/08 05:45:10;;;;;;;1.55;1.45;;;6.30;99.90;;;;;;5100573;28;20225;-83
2022/04/08 05:47:37;;;;;;;4.90;1.65;;;6.30;99.90;;;;;;5103069;28;20206;-82
2022/04/08 05:50:05;;;;;;;1.80;1.48;;;6.30;99.90;;;;;;5105762;28;20202;-82
2022/04/08 05:52:33;;;;;;;1.23;1.13;;;6.30;99.90;;;;;;5106405;28;20686;-81
2022/04/08 05:55:00;;;;;;;2.95;1.20;;;6.40;99.90;;;;;;5107576;28;20252;-82
2022/04/08 05:57:26;;;;;;;2.85;1.92;;;6.30;99.90;;;;;;5108161;28;20213;-82
2022/04/08 06:00:00;;;;;;;4.30;1.45;;;6.30;99.90;;;;;;5107260;28;20215;-82
2022/04/08 06:02:26;;;;;;;1.40;1.30;;;6.40;99.90;;;;;;5106737;28;20226;-82
2022/04/08 06:04:53;;;;;;;4.05;1.80;;;6.30;99.90;;;;;;5106713;28;20206;-82
2022/04/08 06:07:19;;;;;;;1.95;1.65;;;6.40;99.90;;;;;;5108523;28;20213;-82
2022/04/08 06:09:47;;;;;;;4.80;1.42;;;6.40;99.90;;;;;;5112294;28;20206;-80
2022/04/08 06:12:14;;;;;;;1.63;1.52;;;6.50;99.90;;;;;;5106604;22;20234;-84
2022/04/08 06:14:42;;;;;;;2.15;1.95;;;6.40;99.90;;;;;;5055998;28;20208;-83
2022/04/08 06:17:08;;;;;;;2.88;2.58;;;6.40;99.90;;;;;;5055590;28;20192;-83
2022/04/08 06:19:35;;;;;;;6.63;4.90;;;6.50;99.90;;;;;;5055352;28;20213;-83
2022/04/08 06:22:02;;;;;;;6.80;4.00;;;8.10;99.90;;;;;;5055632;28;20255;-84
2022/04/08 06:24:28;;;;;;;23.73;11.95;;;6.60;98.70;;;;;;5056201;28;20204;-83
2022/04/08 06:26:56;;;;;;;19.95;10.90;;;6.50;99.90;;;;;;5055761;28;20220;-83
2022/04/08 06:29:23;;;;;;;18.23;9.43;;;6.50;99.90;;;;;;5055198;28;20204;-83
2022/04/08 06:31:49;;;;;;;3.40;3.10;;;6.50;99.90;;;;;;5055087;28;20217;-83
2022/04/08 06:34:16;;;;;;;9.88;3.60;;;6.60;99.90;;;;;;5055421;28;20204;-83
2022/04/08 06:36:42;;;;;;;3.97;3.30;;;6.70;99.90;;;;;;5053652;28;20271;-84
2022/04/08 06:39:09;;;;;;;6.90;5.32;;;6.70;19.70;;;;;;5053375;28;20212;-83
2022/04/08 06:41:36;;;;;;;5.28;4.88;;;6.70;8.20;;;;;;5052894;28;20266;-84
2022/04/08 06:44:04;;;;;;;5.05;3.50;;;7.00;75.00;;;;;;5053093;28;20231;-83
2022/04/08 06:46:30;;;;;;;2.22;2.13;;;6.80;29.40;;;;;;5052436;28;20219;-83
2022/04/08 06:49:02;;;;;;;3.17;2.00;;;6.90;30.30;;;;;;5052166;28;20204;-84
2022/04/08 06:51:29;;;;;;;4.33;1.73;;;7.00;21.90;;;;;;5052956;28;20225;-83
2022/04/08 06:53:56;;;;;;;2.10;1.33;;;7.10;32.90;;;;;;5054463;28;20448;-83
2022/04/08 06:56:22;;;;;;;3.55;1.25;;;6.70;33.30;;;;;;5055922;28;20201;-83
2022/04/08 06:58:50;;;;;;;2.97;1.90;;;5.10;99.90;;;;;;5057407;28;20325;-83
2022/04/08 07:01:18;;;;;;;3.30;1.30;;;4.80;99.90;;;;;;5056025;28;20227;-84
2022/04/08 07:03:44;;;;;;;4.80;2.13;;;4.60;99.90;;;;;;5056624;28;20207;-84
2022/04/08 07:06:11;;;;;;;1.70;1.20;;;4.50;99.90;;;;;;5055923;28;20207;-83
2022/04/08 07:08:38;;;;;;;2.15;1.95;;;4.50;99.90;;;;;;5054467;28;20196;-83
2022/04/08 07:11:04;;;;;;;2.35;1.30;;;4.30;99.90;;;;;;5055735;28;20188;-83
2022/04/08 07:13:31;;;;;;;3.42;1.90;;;4.30;99.90;;;;;;5055210;28;20234;-83
2022/04/08 07:15:58;;;;;;;3.17;1.48;;;4.20;99.90;;;;;;5056259;28;20199;-86
2022/04/08 07:18:27;;;;;;;3.90;1.67;;;4.00;99.90;;;;;;5055402;28;20219;-84
2022/04/08 07:20:54;;;;;;;4.50;1.50;;;3.90;99.90;;;;;;5051127;28;20340;-86
2022/04/08 07:23:21;;;;;;;2.58;1.60;;;3.70;99.90;;;;;;5049631;28;20192;-84
2022/04/08 07:25:47;;;;;;;1.50;1.25;;;3.40;99.90;;;;;;5050351;28;20228;-84
2022/04/08 07:28:14;;;;;;;1.85;1.60;;;4.10;99.90;;;;;;5049958;28;20199;-84
2022/04/08 07:30:40;;;;;;;1.67;1.55;;;4.00;99.90;;;;;;5050569;28;20203;-83
2022/04/08 07:33:08;;;;;;;5.57;2.17;;;4.10;99.90;;;;;;5047198;28;20234;-84
2022/04/08 07:35:37;;;;;;;5.72;2.05;;;4.20;99.90;;;;;;5049536;28;20199;-85
2022/04/08 07:38:05;;;;;;;3.67;1.70;;;4.70;99.90;;;;;;5051608;28;20207;-84
2022/04/08 07:40:32;;;;;;;3.50;1.80;;;4.60;99.90;;;;;;5050953;28;20208;-85
2022/04/08 07:42:58;;;;;;;3.00;1.67;;;4.70;99.90;;;;;;5048580;28;20224;-85
2022/04/08 07:45:29;;;;;;;1.50;1.40;;;4.80;99.90;;;;;;5050166;28;20574;-85
2022/04/08 07:47:58;;;;;;;1.85;1.30;;;4.90;99.90;;;;;;5049619;28;20192;-84
2022/04/08 07:50:28;;;;;;;2.80;1.52;;;5.20;99.90;;;;;;5050576;28;20210;-84
2022/04/08 07:53:00;;;;;;;2.08;1.77;;;5.10;99.90;;;;;;5050503;28;20220;-84
2022/04/08 07:55:27;;;;;;;1.70;1.60;;;;;;;;;;5049279;28;20195;-84
2022/04/08 07:57:54;;;;;;;4.47;1.63;;;5.20;99.90;;;;;;5047622;28;20235;-85
2022/04/08 08:00:22;;;;;;;5.10;2.22;;;5.20;99.90;;;;;;5048970;28;20204;-86
2022/04/08 08:02:50;;;;;;;4.78;2.50;;;5.20;99.90;;;;;;5048872;28;20250;-84
2022/04/08 08:05:17;;;;;;;1.90;1.65;;;5.30;99.90;;;;;;5049747;28;20204;-84
2022/04/08 08:07:45;;;;;;;4.43;2.10;;;5.60;99.90;;;;;;5050886;28;20256;-84
2022/04/08 08:10:16;;;;;;;3.92;1.90;;;5.50;99.90;;;;;;5048045;28;20230;-85
2022/04/08 08:12:43;;;;;;;2.90;1.70;;;5.60;99.90;;;;;;5048166;28;20713;-84
2022/04/08 08:15:10;;;;;;;2.78;2.05;;;5.80;99.90;;;;;;5047587;28;20203;-84
2022/04/08 08:17:38;;;;;;;4.75;1.90;;;6.00;99.90;;;;;;5048869;28;20210;-83
2022/04/08 08:20:06;;;;;;;5.88;1.90;;;6.10;99.90;;;;;;5040898;28;20250;-84
2022/04/08 08:22:33;;;;;;;8.18;2.40;;;6.30;99.90;;;;;;5049992;28;20226;-84
2022/04/08 08:25:00;;;;;;;5.10;1.65;;;6.80;1.00;;;;;;5052377;28;20207;-84
2022/04/08 08:27:30;;;;;;;2.83;1.80;;;6.50;1.00;;;;;;5053863;28;20234;-84
2022/04/08 08:29:56;;;;;;;6.65;2.25;;;6.70;1.00;;;;;;5054551;28;20192;-84
2022/04/08 08:32:23;;;;;;;8.80;2.53;;;6.50;1.00;;;;;;5053508;28;20223;-84
2022/04/08 08:34:50;;;;;;;4.93;2.05;;;6.70;99.90;;;;;;5051030;28;20240;-84
2022/04/08 08:37:16;;;;;;;4.93;1.77;;;6.80;99.90;;;;;;5052762;28;20262;-85
2022/04/08 08:42:43;;;;;;;7.35;1.73;;;7.10;99.90;;;;;;5050262;28;20271;-85
2022/04/08 08:45:12;;;;;;;5.40;2.15;;;7.20;99.90;;;;;;5051353;28;20197;-84
2022/04/08 08:47:39;;;;;;;7.75;2.85;;;7.40;99.90;;;;;;5052160;28;20250;-83
2022/04/08 08:50:15;;;;;;;4.40;1.60;;;7.30;99.90;;;;;;5050511;28;20210;-85
2022/04/08 08:52:43;;;;;;;5.68;1.20;;;;;;;;;;5050060;28;20233;-84
2022/04/08 08:55:10;;;;;;;3.97;1.60;;;7.30;99.90;;;;;;5050322;28;20228;-85
2022/04/08 08:57:39;;;;;;;2.65;1.50;;;7.50;1.00;;;;;;5049362;28;20240;-84
2022/04/08 09:00:12;;;;;;;5.47;3.15;;;7.50;99.90;;;;;;5050711;28;20273;-84
2022/04/08 09:02:39;;;;;;;8.30;2.28;;;7.50;99.90;;;;;;5050305;28;20545;-84
2022/04/08 09:05:13;;;;;;;2.28;1.85;;;9.40;99.90;;;;;;5050855;28;20206;-84
2022/04/08 09:07:40;;;;;;;4.43;1.70;;;7.70;23.20;;;;;;5051140;28;20244;-84
2022/04/08 09:10:08;;;;;;;2.38;2.13;;;7.70;1.00;;;;;;5048985;28;20214;-85
2022/04/08 09:12:35;;;;;;;5.70;1.50;;;7.80;1.00;;;;;;5049851;28;20233;-85
2022/04/08 09:15:03;;;;;;;8.80;2.20;;;7.90;1.00;;;;;;5052134;28;20209;-84
2022/04/08 09:17:30;;;;;;;4.23;2.27;;;8.00;21.90;;;;;;5051414;28;20427;-84
2022/04/08 09:19:58;;;;;;;3.80;1.60;;;8.00;1.00;;;;;;5050454;28;20432;-84
2022/04/08 09:22:27;;;;;;;5.70;1.83;;;8.10;99.90;;;;;;5048905;28;20469;-84
2022/04/08 09:24:53;;;;;;;4.20;2.07;;;8.00;99.90;;;;;;5050002;28;20457;-84
2022/04/08 09:27:21;;;;;;;5.67;1.90;;;7.80;99.90;;;;;;5049826;28;20485;-84
2022/04/08 09:29:47;;;;;;;6.10;1.77;;;8.00;99.90;;;;;;5053808;28;20429;-84
2022/04/08 09:32:15;;;;;;;5.13;1.53;;;8.00;99.90;;;;;;5049697;28;20447;-84
2022/04/08 09:34:43;;;;;;;5.15;1.83;;;8.00;99.90;;;;;;5051989;28;20423;-85
2022/04/08 09:37:11;;;;;;;5.73;1.93;;;8.20;1.00;;;;;;5053206;28;20215;-85
2022/04/08 09:39:56;;;;;;;12.40;3.13;;;8.20;99.90;;;;;;5055305;28;20427;-84
2022/04/08 09:42:23;;;;;;;3.67;2.00;;;8.30;99.90;;;;;;5053465;28;20444;-84
2022/04/08 09:44:51;;;;;;;3.10;1.80;;;8.40;1.80;;;;;;5052381;28;20421;-84
2022/04/08 09:47:19;;;;;;;4.87;1.33;;;8.30;1.00;;;;;;5052613;28;20543;-84
2022/04/08 09:49:46;;;;;;;8.30;1.90;;;8.40;1.00;;;;;;5053250;28;20473;-84
2022/04/08 09:52:17;;;;;;;6.63;2.10;;;8.30;1.00;;;;;;5051763;28;20490;-85
2022/04/08 09:54:44;;;;;;;9.60;2.23;;;8.30;1.00;;;;;;5053171;28;20451;-84
2022/04/08 09:57:17;;;;;;;4.40;1.43;;;8.40;1.00;;;;;;5052313;28;20448;-84
2022/04/08 09:59:46;;;;;;;3.97;1.70;;;8.40;1.00;;;;;;5051247;28;20443;-85
2022/04/08 10:02:29;;;;;;;5.00;2.00;;;8.60;99.90;;;;;;5052357;28;20467;-84
2022/04/08 10:05:17;;;;;;;6.60;2.00;;;8.50;1.00;;;;;;5054293;28;20445;-85
2022/04/08 10:07:48;;;;;;;3.63;1.50;;;8.70;1.00;;;;;;5052507;28;20534;-84
2022/04/08 10:10:29;;;;;;;2.90;1.70;;;9.00;6.80;;;;;;5058713;28;20469;-84
2022/04/08 10:13:11;;;;;;;6.37;1.67;;;8.90;1.00;;;;;;5058077;28;20459;-84
2022/04/08 10:15:40;;;;;;;5.97;1.50;;;8.70;1.00;;;;;;5060008;28;20433;-85
2022/04/08 10:18:15;;;;;;;2.83;1.80;;;8.80;99.90;;;;;;5055611;28;20414;-84
2022/04/08 10:20:49;;;;;;;6.03;2.13;;;8.50;1.00;;;;;;5055789;28;20414;-84
2022/04/08 10:23:22;;;;;;;4.77;1.90;;;9.00;1.00;;;;;;5055387;28;20479;-85
2022/04/08 10:25:59;;;;;;;5.50;2.07;;;9.20;1.00;;;;;;5053416;28;20461;-85
2022/04/08 10:28:34;;;;;;;3.27;1.50;;;9.20;1.00;;;;;;5051654;28;20457;-84
2022/04/08 10:31:01;;;;;;;5.60;1.70;;;9.00;1.00;;;;;;5053355;28;20433;-84
2022/04/08 10:33:31;;;;;;;2.83;1.60;;;9.00;1.00;;;;;;5053827;28;20417;-84
2022/04/08 10:36:03;;;;;;;3.00;2.20;;;9.30;1.00;;;;;;5050785;28;20469;-85
2022/04/08 10:38:36;;;;;;;2.40;1.60;;;9.20;1.00;;;;;;5050455;28;20445;-84
2022/04/08 10:41:07;;;;;;;2.93;1.30;;;9.30;1.00;;;;;;5049645;28;20439;-85
2022/04/08 10:43:43;;;;;;;3.83;1.37;;;9.20;1.00;;;;;;5050552;28;20413;-85
2022/04/08 10:46:10;;;;;;;1.33;1.23;;;9.30;1.00;;;;;;5049633;28;20435;-85
2022/04/08 10:48:38;;;;;;;2.13;1.70;;;9.30;1.00;;;;;;5049928;28;20457;-85
2022/04/08 10:51:07;;;;;;;5.70;1.80;;;9.20;1.00;;;;;;5051384;28;20443;-85
2022/04/08 10:53:39;;;;;;;6.17;1.70;;;9.30;1.00;;;;;;5051139;28;20448;-84
2022/04/08 10:56:09;;;;;;;1.30;1.20;;;9.20;1.00;;;;;;5051684;28;20451;-85
2022/04/08 10:58:40;;;;;;;3.83;1.83;;;9.10;1.00;;;;;;5049775;28;20454;-83
2022/04/08 11:01:18;;;;;;;3.03;1.80;;;9.60;1.00;;;;;;5050009;28;20500;-85
2022/04/08 11:03:53;;;;;;;1.40;1.30;;;9.40;1.00;;;;;;5050883;28;20462;-84
2022/04/08 11:06:20;;;;;;;3.80;1.47;;;9.30;1.00;;;;;;5051878;28;20414;-85
2022/04/08 11:08:47;;;;;;;2.33;1.40;;;9.20;1.00;;;;;;5051966;28;20438;-85
2022/04/08 11:11:14;;;;;;;5.00;1.97;;;8.60;99.90;;;;;;5052420;28;20449;-84
2022/04/08 11:13:42;;;;;;;5.77;1.80;;;8.60;27.50;;;;;;5050884;28;20432;-84
2022/04/08 11:16:08;;;;;;;1.80;1.70;;;8.50;1.00;;;;;;5051697;28;20417;-84
2022/04/08 11:18:35;;;;;;;1.40;1.30;;;8.60;36.50;;;;;;5051484;28;20517;-85
2022/04/08 11:21:03;;;;;;;5.67;1.90;;;8.60;1.00;;;;;;5052019;28;20453;-84
2022/04/08 11:23:32;;;;;;;4.70;1.90;;;8.70;99.90;;;;;;5052044;28;20844;-84
2022/04/08 11:25:59;;;;;;;6.10;1.90;;;8.80;99.90;;;;;;5050335;28;20432;-84
2022/04/08 11:28:26;;;;;;;8.07;2.97;;;9.00;99.90;;;;;;5053410;28;20474;-84
2022/04/08 11:30:57;;;;;;;3.00;1.50;;;9.20;99.90;;;;;;5053212;28;20447;-84
2022/04/08 11:33:25;;;;;;;1.90;1.50;;;9.00;1.00;;;;;;5051136;28;20510;-84
2022/04/08 11:35:58;;;;;;;3.00;1.57;;;8.90;1.00;;;;;;5049630;28;20808;-85
2022/04/08 11:38:29;;;;;;;3.00;1.80;;;9.50;1.00;;;;;;5050379;28;20791;-84
2022/04/08 11:40:56;;;;;;;2.07;1.70;;;9.40;1.00;;;;;;5051009;28;20435;-85
2022/04/08 11:43:23;;;;;;;2.30;1.53;;;9.40;1.00;;;;;;5048422;28;20454;-84
2022/04/08 11:45:52;;;;;;;2.70;1.60;;;9.50;1.00;;;;;;5050042;28;20417;-85
2022/04/08 11:48:20;;;;;;;2.80;2.23;;;9.80;1.00;;;;;;5050799;28;20549;-85
2022/04/08 11:50:48;;;;;;;2.70;1.67;;;9.70;1.00;;;;;;5050230;28;20808;-86
2022/04/08 11:53:16;;;;;;;3.73;2.07;;;9.50;1.00;;;;;;5052436;28;20521;-83
2022/04/08 11:55:55;;;;;;;1.93;1.77;;;9.90;1.00;;;;;;5054262;28;20514;-84
2022/04/08 11:58:23;;;;;;;8.13;3.17;;;10.00;1.00;;;;;;5052980;28;20431;-83
2022/04/08 12:00:50;;;;;;;8.77;2.20;;;9.70;1.00;;;;;;5051639;28;20459;-84
2022/04/08 12:03:22;;;;;;;5.17;2.20;;;9.50;1.00;;;;;;5052006;28;20455;-84
2022/04/08 12:05:49;;;;;;;2.20;1.67;;;9.30;1.00;;;;;;5050994;28;20518;-83
2022/04/08 12:08:17;;;;;;;4.13;2.20;;;9.60;1.00;;;;;;5053570;28;20493;-84
2022/04/08 12:10:43;;;;;;;2.77;2.20;;;9.10;1.00;;;;;;5049375;28;20504;-84
2022/04/08 12:13:16;;;;;;;4.20;2.47;;;9.00;1.00;;;;;;5049829;28;20484;-85
2022/04/08 12:15:44;;;;;;;6.00;1.73;;;8.80;1.00;;;;;;5052807;28;20438;-84
2022/04/08 12:18:11;;;;;;;6.77;2.30;;;8.70;1.00;;;;;;5052364;28;20421;-85
2022/04/08 12:20:40;;;;;;;4.30;2.37;;;9.00;1.00;;;;;;5050495;28;20450;-84
2022/04/08 12:23:08;;;;;;;2.73;2.00;;;9.20;90.10;;;;;;5040974;28;20467;-84
2022/04/08 12:25:36;;;;;;;2.50;2.13;;;9.30;1.00;;;;;;5044747;28;20509;-85
2022/04/08 12:28:10;;;;;;;3.90;2.87;;;9.60;1.00;;;;;;5050364;28;20460;-84
2022/04/08 12:30:38;;;;;;;2.60;1.63;;;9.40;1.00;;;;;;5050735;28;20427;-84
2022/04/08 12:33:05;;;;;;;5.20;2.93;;;9.30;1.00;;;;;;5053865;28;20454;-84
2022/04/08 12:35:32;;;;;;;4.80;2.13;;;9.20;1.00;;;;;;5055512;28;20436;-84
2022/04/08 12:38:03;;;;;;;4.00;2.67;;;9.00;1.00;;;;;;5056197;28;20466;-83
2022/04/08 12:40:29;;;;;;;3.30;1.73;;;9.00;1.00;;;;;;5055951;28;20493;-85
2022/04/08 12:42:56;;;;;;;4.27;2.13;;;9.20;1.00;;;;;;5052994;28;20441;-85
2022/04/08 12:45:23;;;;;;;4.30;2.53;;;9.40;1.00;;;;;;5047251;28;20450;-84
2022/04/08 12:47:52;;;;;;;5.50;1.90;;;10.90;1.00;;;;;;5053349;28;20461;-84
2022/04/08 12:50:19;;;;;;;3.43;2.80;;;10.10;30.80;;;;;;5055704;28;20424;-84
2022/04/08 12:52:45;;;;;;;3.97;2.23;;;9.90;1.00;;;;;;5051651;28;20494;-84
2022/04/08 12:55:12;;;;;;;2.90;2.00;;;9.80;1.00;;;;;;5052744;28;20473;-84
2022/04/08 12:57:41;;;;;;;3.03;2.03;;;9.90;1.00;;;;;;5053089;28;20506;-84
2022/04/08 13:00:12;;;;;;;4.43;1.83;;;9.50;1.00;;;;;;5054537;28;20421;-84
2022/04/08 13:02:40;;;;;;;5.50;2.13;;;9.40;1.00;;;;;;5054817;28;20482;-84
2022/04/08 13:05:08;;;;;;;3.90;1.97;;;9.60;1.00;;;;;;5049773;28;20792;-84
2022/04/08 13:07:47;;;;;;;5.40;2.30;;;9.50;1.00;;;;;;5050193;28;20485;-83
2022/04/08 13:10:42;;;;;;;;;;;;;;;;;;;;;
2022/04/08 13:13:50;;;;;;;6.73;1.90;;;9.90;1.00;;;;;;5050066;28;20456;-82